sensor_id;sensor_type;location;lat;lon;timestamp;P1;durP1;ratioP1;P2;durP2;ratioP2
76202;SDS011;64985;46.364;17.008;2023-06-24T00:03:00;2.13;;;2.03;;
76202;SDS011;64985;46.364;17.008;2023-06-24T00:06:04;2.60;;;2.40;;
76202;SDS011;64985;46.364;17.008;2023-06-24T00:09:06;2.65;;;2.45;;
76202;SDS011;64985;46.364;17.008;2023-06-24T00:12:09;2.08;;;1.98;;
76202;SDS011;64985;46.364;17.008;2023-06-24T00:15:11;2.17;;;2.05;;
76202;SDS011;64985;46.364;17.008;2023-06-24T00:18:13;1.95;;;1.85;;
76202;SDS011;64985;46.364;17.008;2023-06-24T00:21:15;2.17;;;2.08;;
76202;SDS011;64985;46.364;17.008;2023-06-24T00:24:21;2.60;;;2.38;;
76202;SDS011;64985;46.364;17.008;2023-06-24T00:27:27;2.35;;;2.25;;
76202;SDS011;64985;46.364;17.008;2023-06-24T00:30:29;2.53;;;2.42;;
76202;SDS011;64985;46.364;17.008;2023-06-24T00:33:31;2.63;;;2.47;;
76202;SDS011;64985;46.364;17.008;2023-06-24T00:36:37;2.60;;;2.50;;
76202;SDS011;64985;46.364;17.008;2023-06-24T00:39:40;2.83;;;2.72;;
76202;SDS011;64985;46.364;17.008;2023-06-24T00:42:45;2.85;;;2.75;;
76202;SDS011;64985;46.364;17.008;2023-06-24T00:45:48;2.65;;;2.45;;
76202;SDS011;64985;46.364;17.008;2023-06-24T00:48:52;2.60;;;2.50;;
76202;SDS011;64985;46.364;17.008;2023-06-24T00:51:55;2.50;;;2.40;;
76202;SDS011;64985;46.364;17.008;2023-06-24T00:54:57;2.30;;;2.17;;
76202;SDS011;64985;46.364;17.008;2023-06-24T00:57:59;3.42;;;2.85;;
76202;SDS011;64985;46.364;17.008;2023-06-24T01:01:02;2.83;;;2.70;;
76202;SDS011;64985;46.364;17.008;2023-06-24T01:04:07;2.33;;;2.22;;
76202;SDS011;64985;46.364;17.008;2023-06-24T01:07:10;3.10;;;2.90;;
76202;SDS011;64985;46.364;17.008;2023-06-24T01:10:12;2.35;;;2.25;;
76202;SDS011;64985;46.364;17.008;2023-06-24T01:13:16;2.78;;;2.60;;
76202;SDS011;64985;46.364;17.008;2023-06-24T01:19:50;2.80;;;2.70;;
76202;SDS011;64985;46.364;17.008;2023-06-24T01:30:01;1.98;;;1.88;;
76202;SDS011;64985;46.364;17.008;2023-06-24T01:33:12;2.17;;;2.08;;
76202;SDS011;64985;46.364;17.008;2023-06-24T01:36:21;2.28;;;2.15;;
76202;SDS011;64985;46.364;17.008;2023-06-24T01:39:26;2.55;;;2.40;;
76202;SDS011;64985;46.364;17.008;2023-06-24T01:42:31;2.40;;;2.30;;
76202;SDS011;64985;46.364;17.008;2023-06-24T01:45:36;2.00;;;1.90;;
76202;SDS011;64985;46.364;17.008;2023-06-24T01:49:01;1.60;;;1.60;;
76202;SDS011;64985;46.364;17.008;2023-06-24T01:52:06;1.67;;;1.67;;
76202;SDS011;64985;46.364;17.008;2023-06-24T01:55:11;2.47;;;2.28;;
76202;SDS011;64985;46.364;17.008;2023-06-24T01:58:17;2.40;;;2.20;;
76202;SDS011;64985;46.364;17.008;2023-06-24T02:01:22;2.13;;;2.03;;
76202;SDS011;64985;46.364;17.008;2023-06-24T02:04:26;2.10;;;2.00;;
76202;SDS011;64985;46.364;17.008;2023-06-24T02:07:33;1.77;;;1.70;;
76202;SDS011;64985;46.364;17.008;2023-06-24T02:10:37;1.30;;;1.30;;
76202;SDS011;64985;46.364;17.008;2023-06-24T02:13:40;1.85;;;1.75;;
76202;SDS011;64985;46.364;17.008;2023-06-24T02:16:45;1.95;;;1.85;;
76202;SDS011;64985;46.364;17.008;2023-06-24T02:19:49;1.63;;;1.60;;
76202;SDS011;64985;46.364;17.008;2023-06-24T02:22:53;1.40;;;1.40;;
76202;SDS011;64985;46.364;17.008;2023-06-24T02:25:57;1.60;;;1.50;;
76202;SDS011;64985;46.364;17.008;2023-06-24T02:29:00;1.23;;;1.23;;
76202;SDS011;64985;46.364;17.008;2023-06-24T02:32:02;2.88;;;2.17;;
76202;SDS011;64985;46.364;17.008;2023-06-24T02:35:05;1.30;;;1.30;;
76202;SDS011;64985;46.364;17.008;2023-06-24T02:38:08;14.63;;;1.90;;
76202;SDS011;64985;46.364;17.008;2023-06-24T02:41:10;1.60;;;1.58;;
76202;SDS011;64985;46.364;17.008;2023-06-24T02:44:13;1.63;;;1.58;;
76202;SDS011;64985;46.364;17.008;2023-06-24T02:47:15;1.35;;;1.35;;
76202;SDS011;64985;46.364;17.008;2023-06-24T02:50:19;1.55;;;1.55;;
76202;SDS011;64985;46.364;17.008;2023-06-24T02:53:23;1.30;;;1.30;;
76202;SDS011;64985;46.364;17.008;2023-06-24T02:56:26;1.88;;;1.77;;
76202;SDS011;64985;46.364;17.008;2023-06-24T02:59:29;1.48;;;1.45;;
76202;SDS011;64985;46.364;17.008;2023-06-24T03:02:31;1.85;;;1.75;;
76202;SDS011;64985;46.364;17.008;2023-06-24T03:05:34;1.50;;;1.45;;
76202;SDS011;64985;46.364;17.008;2023-06-24T03:08:38;1.60;;;1.50;;
76202;SDS011;64985;46.364;17.008;2023-06-24T03:11:41;1.83;;;1.73;;
76202;SDS011;64985;46.364;17.008;2023-06-24T03:14:44;1.42;;;1.42;;
76202;SDS011;64985;46.364;17.008;2023-06-24T03:17:46;1.17;;;1.17;;
76202;SDS011;64985;46.364;17.008;2023-06-24T03:20:49;1.20;;;1.20;;
76202;SDS011;64985;46.364;17.008;2023-06-24T03:23:51;2.50;;;1.98;;
76202;SDS011;64985;46.364;17.008;2023-06-24T03:26:53;1.33;;;1.33;;
76202;SDS011;64985;46.364;17.008;2023-06-24T03:29:58;1.92;;;1.83;;
76202;SDS011;64985;46.364;17.008;2023-06-24T03:33:00;2.28;;;2.17;;
76202;SDS011;64985;46.364;17.008;2023-06-24T03:36:03;1.80;;;1.70;;
76202;SDS011;64985;46.364;17.008;2023-06-24T03:39:07;1.73;;;1.63;;
76202;SDS011;64985;46.364;17.008;2023-06-24T03:42:09;1.50;;;1.50;;
76202;SDS011;64985;46.364;17.008;2023-06-24T03:45:11;1.15;;;1.15;;
76202;SDS011;64985;46.364;17.008;2023-06-24T03:48:13;1.35;;;1.35;;
76202;SDS011;64985;46.364;17.008;2023-06-24T03:51:15;1.60;;;1.50;;
76202;SDS011;64985;46.364;17.008;2023-06-24T03:54:17;1.20;;;1.20;;
76202;SDS011;64985;46.364;17.008;2023-06-24T03:57:19;1.20;;;1.20;;
76202;SDS011;64985;46.364;17.008;2023-06-24T04:00:22;1.77;;;1.38;;
76202;SDS011;64985;46.364;17.008;2023-06-24T04:03:24;2.28;;;1.73;;
76202;SDS011;64985;46.364;17.008;2023-06-24T04:06:30;1.48;;;1.48;;
76202;SDS011;64985;46.364;17.008;2023-06-24T04:09:35;1.55;;;1.55;;
76202;SDS011;64985;46.364;17.008;2023-06-24T04:12:37;1.13;;;1.13;;
76202;SDS011;64985;46.364;17.008;2023-06-24T04:15:39;1.80;;;1.70;;
76202;SDS011;64985;46.364;17.008;2023-06-24T04:18:41;1.40;;;1.30;;
76202;SDS011;64985;46.364;17.008;2023-06-24T04:21:43;1.67;;;1.58;;
76202;SDS011;64985;46.364;17.008;2023-06-24T04:24:45;1.65;;;1.55;;
76202;SDS011;64985;46.364;17.008;2023-06-24T04:27:48;1.38;;;1.38;;
76202;SDS011;64985;46.364;17.008;2023-06-24T04:30:50;1.30;;;1.30;;
76202;SDS011;64985;46.364;17.008;2023-06-24T04:33:52;1.48;;;1.42;;
76202;SDS011;64985;46.364;17.008;2023-06-24T04:36:55;1.48;;;1.48;;
76202;SDS011;64985;46.364;17.008;2023-06-24T04:39:57;1.50;;;1.50;;
76202;SDS011;64985;46.364;17.008;2023-06-24T04:42:59;1.40;;;1.38;;
76202;SDS011;64985;46.364;17.008;2023-06-24T04:46:02;1.25;;;1.25;;
76202;SDS011;64985;46.364;17.008;2023-06-24T04:49:04;1.85;;;1.75;;
76202;SDS011;64985;46.364;17.008;2023-06-24T04:52:06;1.25;;;1.25;;
76202;SDS011;64985;46.364;17.008;2023-06-24T04:55:10;1.70;;;1.60;;
76202;SDS011;64985;46.364;17.008;2023-06-24T04:58:12;1.65;;;1.63;;
76202;SDS011;64985;46.364;17.008;2023-06-24T05:01:14;1.20;;;1.20;;
76202;SDS011;64985;46.364;17.008;2023-06-24T05:04:17;2.25;;;1.73;;
76202;SDS011;64985;46.364;17.008;2023-06-24T05:07:19;1.15;;;1.10;;
76202;SDS011;64985;46.364;17.008;2023-06-24T05:10:21;0.95;;;0.95;;
76202;SDS011;64985;46.364;17.008;2023-06-24T05:13:23;0.60;;;0.60;;
76202;SDS011;64985;46.364;17.008;2023-06-24T05:16:25;0.95;;;0.85;;
76202;SDS011;64985;46.364;17.008;2023-06-24T05:19:27;0.60;;;0.60;;
76202;SDS011;64985;46.364;17.008;2023-06-24T05:22:30;0.30;;;0.30;;
76202;SDS011;64985;46.364;17.008;2023-06-24T05:25:32;1.08;;;1.08;;
76202;SDS011;64985;46.364;17.008;2023-06-24T05:28:35;0.65;;;0.65;;
76202;SDS011;64985;46.364;17.008;2023-06-24T05:31:37;0.60;;;0.60;;
76202;SDS011;64985;46.364;17.008;2023-06-24T05:34:39;0.75;;;0.70;;
76202;SDS011;64985;46.364;17.008;2023-06-24T05:37:41;0.57;;;0.57;;
76202;SDS011;64985;46.364;17.008;2023-06-24T05:40:43;1.17;;;1.10;;
76202;SDS011;64985;46.364;17.008;2023-06-24T05:43:45;0.60;;;0.60;;
76202;SDS011;64985;46.364;17.008;2023-06-24T05:46:47;0.32;;;0.30;;
76202;SDS011;64985;46.364;17.008;2023-06-24T05:49:49;0.25;;;0.25;;
76202;SDS011;64985;46.364;17.008;2023-06-24T05:52:51;0.20;;;0.20;;
76202;SDS011;64985;46.364;17.008;2023-06-24T05:55:54;0.05;;;0.05;;
76202;SDS011;64985;46.364;17.008;2023-06-24T05:58:56;0.47;;;0.47;;
76202;SDS011;64985;46.364;17.008;2023-06-24T06:01:58;0.20;;;0.20;;
76202;SDS011;64985;46.364;17.008;2023-06-24T06:05:03;0.10;;;0.10;;
76202;SDS011;64985;46.364;17.008;2023-06-24T06:08:05;0.05;;;0.05;;
76202;SDS011;64985;46.364;17.008;2023-06-24T06:11:07;0.20;;;0.20;;
76202;SDS011;64985;46.364;17.008;2023-06-24T06:14:09;0.03;;;0.00;;
76202;SDS011;64985;46.364;17.008;2023-06-24T06:17:12;0.00;;;0.00;;
76202;SDS011;64985;46.364;17.008;2023-06-24T06:20:15;0.40;;;0.20;;
76202;SDS011;64985;46.364;17.008;2023-06-24T06:23:17;0.10;;;0.10;;
76202;SDS011;64985;46.364;17.008;2023-06-24T06:26:19;0.30;;;0.30;;
76202;SDS011;64985;46.364;17.008;2023-06-24T06:29:21;1.60;;;0.70;;
76202;SDS011;64985;46.364;17.008;2023-06-24T06:32:23;0.77;;;0.55;;
76202;SDS011;64985;46.364;17.008;2023-06-24T06:35:25;0.57;;;0.47;;
76202;SDS011;64985;46.364;17.008;2023-06-24T06:38:27;2.65;;;0.65;;
76202;SDS011;64985;46.364;17.008;2023-06-24T06:41:30;13.95;;;0.88;;
76202;SDS011;64985;46.364;17.008;2023-06-24T06:44:32;2.60;;;0.80;;
76202;SDS011;64985;46.364;17.008;2023-06-24T06:47:34;1.38;;;0.82;;
76202;SDS011;64985;46.364;17.008;2023-06-24T06:50:36;1.13;;;0.45;;
76202;SDS011;64985;46.364;17.008;2023-06-24T06:53:38;1.70;;;0.63;;
76202;SDS011;64985;46.364;17.008;2023-06-24T06:56:40;1.20;;;0.80;;
76202;SDS011;64985;46.364;17.008;2023-06-24T06:59:43;5.25;;;0.60;;
76202;SDS011;64985;46.364;17.008;2023-06-24T07:02:45;1.02;;;0.80;;
76202;SDS011;64985;46.364;17.008;2023-06-24T07:05:47;2.25;;;1.10;;
76202;SDS011;64985;46.364;17.008;2023-06-24T07:08:49;1.88;;;1.20;;
76202;SDS011;64985;46.364;17.008;2023-06-24T07:11:51;1.55;;;1.27;;
76202;SDS011;64985;46.364;17.008;2023-06-24T07:14:53;2.10;;;1.35;;
76202;SDS011;64985;46.364;17.008;2023-06-24T07:17:55;2.15;;;1.40;;
76202;SDS011;64985;46.364;17.008;2023-06-24T07:20:59;1.75;;;1.10;;
76202;SDS011;64985;46.364;17.008;2023-06-24T07:24:01;7.35;;;1.10;;
76202;SDS011;64985;46.364;17.008;2023-06-24T07:27:04;2.33;;;1.42;;
76202;SDS011;64985;46.364;17.008;2023-06-24T07:30:06;2.47;;;1.25;;
76202;SDS011;64985;46.364;17.008;2023-06-24T07:33:09;2.08;;;1.42;;
76202;SDS011;64985;46.364;17.008;2023-06-24T07:36:11;2.97;;;1.77;;
76202;SDS011;64985;46.364;17.008;2023-06-24T07:39:15;3.78;;;1.65;;
76202;SDS011;64985;46.364;17.008;2023-06-24T07:42:17;3.10;;;1.90;;
76202;SDS011;64985;46.364;17.008;2023-06-24T07:45:22;2.13;;;1.63;;
76202;SDS011;64985;46.364;17.008;2023-06-24T07:48:25;3.30;;;1.45;;
76202;SDS011;64985;46.364;17.008;2023-06-24T07:51:27;3.75;;;1.75;;
76202;SDS011;64985;46.364;17.008;2023-06-24T07:54:29;5.35;;;1.88;;
76202;SDS011;64985;46.364;17.008;2023-06-24T07:57:32;5.63;;;1.80;;
76202;SDS011;64985;46.364;17.008;2023-06-24T08:00:34;4.10;;;2.00;;
76202;SDS011;64985;46.364;17.008;2023-06-24T08:03:40;2.55;;;2.13;;
76202;SDS011;64985;46.364;17.008;2023-06-24T08:06:42;4.93;;;2.30;;
76202;SDS011;64985;46.364;17.008;2023-06-24T08:09:44;6.25;;;2.22;;
76202;SDS011;64985;46.364;17.008;2023-06-24T08:12:46;4.32;;;2.10;;
76202;SDS011;64985;46.364;17.008;2023-06-24T08:15:48;2.58;;;1.90;;
76202;SDS011;64985;46.364;17.008;2023-06-24T08:18:50;5.45;;;2.00;;
76202;SDS011;64985;46.364;17.008;2023-06-24T08:21:53;3.85;;;1.92;;
76202;SDS011;64985;46.364;17.008;2023-06-24T08:24:55;6.93;;;2.10;;
76202;SDS011;64985;46.364;17.008;2023-06-24T08:27:57;8.23;;;2.25;;
76202;SDS011;64985;46.364;17.008;2023-06-24T08:30:59;3.83;;;2.08;;
76202;SDS011;64985;46.364;17.008;2023-06-24T08:34:01;4.47;;;2.20;;
76202;SDS011;64985;46.364;17.008;2023-06-24T08:37:04;6.85;;;2.15;;
76202;SDS011;64985;46.364;17.008;2023-06-24T08:40:06;5.32;;;2.08;;
76202;SDS011;64985;46.364;17.008;2023-06-24T08:43:10;5.75;;;2.38;;
76202;SDS011;64985;46.364;17.008;2023-06-24T08:46:13;5.07;;;2.38;;
76202;SDS011;64985;46.364;17.008;2023-06-24T08:52:29;3.80;;;2.40;;
76202;SDS011;64985;46.364;17.008;2023-06-24T08:55:39;8.52;;;2.85;;
76202;SDS011;64985;46.364;17.008;2023-06-24T08:58:44;4.50;;;2.58;;
76202;SDS011;64985;46.364;17.008;2023-06-24T09:01:47;5.63;;;2.92;;
76202;SDS011;64985;46.364;17.008;2023-06-24T09:04:50;7.28;;;2.80;;
76202;SDS011;64985;46.364;17.008;2023-06-24T09:07:53;4.28;;;3.03;;
76202;SDS011;64985;46.364;17.008;2023-06-24T09:10:55;4.13;;;3.60;;
76202;SDS011;64985;46.364;17.008;2023-06-24T09:13:58;6.78;;;3.17;;
76202;SDS011;64985;46.364;17.008;2023-06-24T09:17:01;5.88;;;3.10;;
76202;SDS011;64985;46.364;17.008;2023-06-24T09:20:06;4.72;;;3.08;;
76202;SDS011;64985;46.364;17.008;2023-06-24T09:23:12;4.43;;;3.42;;
76202;SDS011;64985;46.364;17.008;2023-06-24T09:26:14;6.70;;;3.40;;
76202;SDS011;64985;46.364;17.008;2023-06-24T09:29:16;4.65;;;3.55;;
76202;SDS011;64985;46.364;17.008;2023-06-24T09:32:18;9.02;;;3.83;;
76202;SDS011;64985;46.364;17.008;2023-06-24T09:35:22;10.00;;;3.97;;
76202;SDS011;64985;46.364;17.008;2023-06-24T09:38:37;5.60;;;4.03;;
76202;SDS011;64985;46.364;17.008;2023-06-24T09:41:42;5.68;;;3.88;;
76202;SDS011;64985;46.364;17.008;2023-06-24T09:44:45;5.95;;;4.28;;
76202;SDS011;64985;46.364;17.008;2023-06-24T09:47:55;9.00;;;3.60;;
76202;SDS011;64985;46.364;17.008;2023-06-24T09:51:00;5.18;;;3.83;;
76202;SDS011;64985;46.364;17.008;2023-06-24T09:54:07;5.97;;;3.53;;
76202;SDS011;64985;46.364;17.008;2023-06-24T09:57:10;4.40;;;3.40;;
76202;SDS011;64985;46.364;17.008;2023-06-24T10:00:15;6.03;;;3.13;;
76202;SDS011;64985;46.364;17.008;2023-06-24T10:03:20;4.28;;;3.03;;
76202;SDS011;64985;46.364;17.008;2023-06-24T10:06:23;6.50;;;3.05;;
76202;SDS011;64985;46.364;17.008;2023-06-24T10:09:27;9.60;;;2.78;;
76202;SDS011;64985;46.364;17.008;2023-06-24T10:12:29;4.47;;;2.85;;
76202;SDS011;64985;46.364;17.008;2023-06-24T10:15:33;5.32;;;2.70;;
76202;SDS011;64985;46.364;17.008;2023-06-24T10:19:02;7.55;;;3.10;;
76202;SDS011;64985;46.364;17.008;2023-06-24T10:22:08;4.20;;;2.78;;
76202;SDS011;64985;46.364;17.008;2023-06-24T10:25:14;6.05;;;3.20;;
76202;SDS011;64985;46.364;17.008;2023-06-24T10:28:16;3.33;;;2.90;;
76202;SDS011;64985;46.364;17.008;2023-06-24T10:31:19;4.03;;;3.30;;
76202;SDS011;64985;46.364;17.008;2023-06-24T10:34:34;4.93;;;3.13;;
76202;SDS011;64985;46.364;17.008;2023-06-24T10:37:49;3.08;;;2.47;;
76202;SDS011;64985;46.364;17.008;2023-06-24T10:40:56;4.70;;;2.97;;
76202;SDS011;64985;46.364;17.008;2023-06-24T10:43:58;3.13;;;2.80;;
76202;SDS011;64985;46.364;17.008;2023-06-24T10:47:00;3.47;;;2.80;;
76202;SDS011;64985;46.364;17.008;2023-06-24T10:50:03;3.67;;;3.30;;
76202;SDS011;64985;46.364;17.008;2023-06-24T10:53:07;6.43;;;2.90;;
76202;SDS011;64985;46.364;17.008;2023-06-24T10:56:09;4.25;;;2.67;;
76202;SDS011;64985;46.364;17.008;2023-06-24T10:59:12;4.88;;;2.05;;
76202;SDS011;64985;46.364;17.008;2023-06-24T11:02:16;2.53;;;1.70;;
76202;SDS011;64985;46.364;17.008;2023-06-24T11:05:19;2.80;;;1.35;;
76202;SDS011;64985;46.364;17.008;2023-06-24T11:08:22;3.00;;;1.05;;
76202;SDS011;64985;46.364;17.008;2023-06-24T11:11:26;1.85;;;0.50;;
76202;SDS011;64985;46.364;17.008;2023-06-24T11:14:30;2.38;;;0.40;;
76202;SDS011;64985;46.364;17.008;2023-06-24T11:17:35;0.50;;;0.30;;
76202;SDS011;64985;46.364;17.008;2023-06-24T11:20:38;0.30;;;0.28;;
76202;SDS011;64985;46.364;17.008;2023-06-24T11:23:41;0.50;;;0.10;;
76202;SDS011;64985;46.364;17.008;2023-06-24T11:26:43;0.77;;;0.13;;
76202;SDS011;64985;46.364;17.008;2023-06-24T11:29:46;2.70;;;0.30;;
76202;SDS011;64985;46.364;17.008;2023-06-24T11:32:49;0.40;;;0.20;;
76202;SDS011;64985;46.364;17.008;2023-06-24T11:35:52;0.52;;;0.20;;
76202;SDS011;64985;46.364;17.008;2023-06-24T11:38:54;1.65;;;0.28;;
76202;SDS011;64985;46.364;17.008;2023-06-24T11:41:57;0.55;;;0.30;;
76202;SDS011;64985;46.364;17.008;2023-06-24T11:45:00;0.60;;;0.32;;
76202;SDS011;64985;46.364;17.008;2023-06-24T11:48:04;1.35;;;0.43;;
76202;SDS011;64985;46.364;17.008;2023-06-24T11:51:12;1.75;;;0.40;;
76202;SDS011;64985;46.364;17.008;2023-06-24T11:54:18;4.00;;;0.60;;
76202;SDS011;64985;46.364;17.008;2023-06-24T11:57:25;2.85;;;0.60;;
76202;SDS011;64985;46.364;17.008;2023-06-24T12:00:57;1.35;;;0.50;;
76202;SDS011;64985;46.364;17.008;2023-06-24T12:04:00;2.10;;;0.40;;
76202;SDS011;64985;46.364;17.008;2023-06-24T12:07:03;5.38;;;0.60;;
76202;SDS011;64985;46.364;17.008;2023-06-24T12:10:05;0.43;;;0.43;;
76202;SDS011;64985;46.364;17.008;2023-06-24T12:13:09;1.17;;;0.40;;
76202;SDS011;64985;46.364;17.008;2023-06-24T12:16:12;0.50;;;0.50;;
76202;SDS011;64985;46.364;17.008;2023-06-24T12:19:14;1.05;;;0.70;;
76202;SDS011;64985;46.364;17.008;2023-06-24T12:22:16;0.93;;;0.60;;
76202;SDS011;64985;46.364;17.008;2023-06-24T12:25:18;1.17;;;0.50;;
76202;SDS011;64985;46.364;17.008;2023-06-24T17:30:04;8.10;;;6.53;;
76202;SDS011;64985;46.364;17.008;2023-06-24T17:33:07;8.05;;;6.47;;
76202;SDS011;64985;46.364;17.008;2023-06-24T17:36:09;9.90;;;6.20;;
76202;SDS011;64985;46.364;17.008;2023-06-24T17:39:11;11.32;;;6.45;;
76202;SDS011;64985;46.364;17.008;2023-06-24T17:42:13;8.75;;;6.80;;
76202;SDS011;64985;46.364;17.008;2023-06-24T17:45:15;8.40;;;6.70;;
76202;SDS011;64985;46.364;17.008;2023-06-24T17:48:18;11.30;;;6.85;;
76202;SDS011;64985;46.364;17.008;2023-06-24T17:51:21;12.63;;;6.72;;
76202;SDS011;64985;46.364;17.008;2023-06-24T17:54:23;8.07;;;6.70;;
76202;SDS011;64985;46.364;17.008;2023-06-24T17:57:25;7.30;;;6.60;;
76202;SDS011;64985;46.364;17.008;2023-06-24T18:00:27;7.95;;;6.95;;
76202;SDS011;64985;46.364;17.008;2023-06-24T18:03:30;7.80;;;6.78;;
76202;SDS011;64985;46.364;17.008;2023-06-24T18:06:32;11.00;;;6.65;;
76202;SDS011;64985;46.364;17.008;2023-06-24T18:09:35;10.35;;;7.07;;
76202;SDS011;64985;46.364;17.008;2023-06-24T18:12:37;54.25;;;15.23;;
76202;SDS011;64985;46.364;17.008;2023-06-24T18:15:42;20.83;;;9.52;;
76202;SDS011;64985;46.364;17.008;2023-06-24T18:18:44;11.98;;;7.82;;
76202;SDS011;64985;46.364;17.008;2023-06-24T18:21:46;97.82;;;22.92;;
76202;SDS011;64985;46.364;17.008;2023-06-24T18:24:48;15.38;;;8.10;;
76202;SDS011;64985;46.364;17.008;2023-06-24T18:27:50;16.38;;;8.00;;
76202;SDS011;64985;46.364;17.008;2023-06-24T18:30:52;9.30;;;7.82;;
76202;SDS011;64985;46.364;17.008;2023-06-24T18:33:55;8.23;;;6.95;;
76202;SDS011;64985;46.364;17.008;2023-06-24T18:36:59;11.45;;;7.82;;
76202;SDS011;64985;46.364;17.008;2023-06-24T18:40:01;8.55;;;7.50;;
76202;SDS011;64985;46.364;17.008;2023-06-24T18:43:06;9.13;;;7.25;;
76202;SDS011;64985;46.364;17.008;2023-06-24T18:46:08;11.60;;;8.15;;
76202;SDS011;64985;46.364;17.008;2023-06-24T18:49:10;9.10;;;8.07;;
76202;SDS011;64985;46.364;17.008;2023-06-24T18:52:12;10.95;;;8.82;;
76202;SDS011;64985;46.364;17.008;2023-06-24T18:55:14;13.55;;;8.30;;
76202;SDS011;64985;46.364;17.008;2023-06-24T18:58:16;11.93;;;8.73;;
76202;SDS011;64985;46.364;17.008;2023-06-24T19:01:18;12.48;;;9.45;;
76202;SDS011;64985;46.364;17.008;2023-06-24T19:04:21;10.02;;;8.10;;
76202;SDS011;64985;46.364;17.008;2023-06-24T19:07:24;9.05;;;8.15;;
76202;SDS011;64985;46.364;17.008;2023-06-24T19:10:27;10.18;;;8.05;;
76202;SDS011;64985;46.364;17.008;2023-06-24T19:13:29;10.38;;;8.55;;
76202;SDS011;64985;46.364;17.008;2023-06-24T19:16:31;13.10;;;8.55;;
76202;SDS011;64985;46.364;17.008;2023-06-24T19:19:33;9.48;;;8.13;;
76202;SDS011;64985;46.364;17.008;2023-06-24T19:22:35;10.02;;;7.85;;
76202;SDS011;64985;46.364;17.008;2023-06-24T19:25:39;10.77;;;8.23;;
76202;SDS011;64985;46.364;17.008;2023-06-24T19:28:41;11.15;;;8.63;;
76202;SDS011;64985;46.364;17.008;2023-06-24T19:31:43;12.70;;;8.50;;
76202;SDS011;64985;46.364;17.008;2023-06-24T19:34:45;11.07;;;8.75;;
76202;SDS011;64985;46.364;17.008;2023-06-24T19:37:48;13.27;;;8.55;;
76202;SDS011;64985;46.364;17.008;2023-06-24T19:40:50;11.10;;;8.93;;
76202;SDS011;64985;46.364;17.008;2023-06-24T19:44:01;13.45;;;8.75;;
76202;SDS011;64985;46.364;17.008;2023-06-24T19:47:05;13.48;;;9.65;;
76202;SDS011;64985;46.364;17.008;2023-06-24T19:50:07;10.63;;;8.82;;
76202;SDS011;64985;46.364;17.008;2023-06-24T19:53:11;12.02;;;9.32;;
76202;SDS011;64985;46.364;17.008;2023-06-24T19:56:14;10.32;;;9.07;;
76202;SDS011;64985;46.364;17.008;2023-06-24T19:59:16;13.77;;;10.20;;
76202;SDS011;64985;46.364;17.008;2023-06-24T20:02:18;11.77;;;9.18;;
76202;SDS011;64985;46.364;17.008;2023-06-24T20:05:20;12.02;;;9.40;;
76202;SDS011;64985;46.364;17.008;2023-06-24T20:08:22;10.38;;;9.27;;
76202;SDS011;64985;46.364;17.008;2023-06-24T20:11:24;10.45;;;9.35;;
76202;SDS011;64985;46.364;17.008;2023-06-24T20:14:27;13.95;;;10.48;;
76202;SDS011;64985;46.364;17.008;2023-06-24T20:17:29;12.55;;;9.35;;
76202;SDS011;64985;46.364;17.008;2023-06-24T20:20:31;11.55;;;9.23;;
76202;SDS011;64985;46.364;17.008;2023-06-24T20:23:33;14.40;;;10.15;;
76202;SDS011;64985;46.364;17.008;2023-06-24T20:26:35;12.63;;;10.02;;
76202;SDS011;64985;46.364;17.008;2023-06-24T20:29:38;14.73;;;10.68;;
76202;SDS011;64985;46.364;17.008;2023-06-24T20:32:40;16.42;;;10.52;;
76202;SDS011;64985;46.364;17.008;2023-06-24T20:35:42;14.25;;;10.57;;
76202;SDS011;64985;46.364;17.008;2023-06-24T20:38:44;14.07;;;10.15;;
76202;SDS011;64985;46.364;17.008;2023-06-24T20:41:46;15.00;;;10.88;;
76202;SDS011;64985;46.364;17.008;2023-06-24T20:44:49;13.80;;;10.80;;
76202;SDS011;64985;46.364;17.008;2023-06-24T20:47:51;13.32;;;10.60;;
76202;SDS011;64985;46.364;17.008;2023-06-24T20:50:53;12.13;;;10.40;;
76202;SDS011;64985;46.364;17.008;2023-06-24T20:53:55;15.75;;;11.50;;
76202;SDS011;64985;46.364;17.008;2023-06-24T20:56:57;14.07;;;11.45;;
76202;SDS011;64985;46.364;17.008;2023-06-24T20:59:59;14.90;;;11.20;;
76202;SDS011;64985;46.364;17.008;2023-06-24T21:03:02;16.73;;;11.90;;
76202;SDS011;64985;46.364;17.008;2023-06-24T21:06:04;14.38;;;12.13;;
76202;SDS011;64985;46.364;17.008;2023-06-24T21:09:07;16.00;;;12.23;;
76202;SDS011;64985;46.364;17.008;2023-06-24T21:12:09;13.60;;;11.88;;
76202;SDS011;64985;46.364;17.008;2023-06-24T21:15:12;23.15;;;12.85;;
76202;SDS011;64985;46.364;17.008;2023-06-24T21:18:14;17.15;;;12.80;;
76202;SDS011;64985;46.364;17.008;2023-06-24T21:21:16;16.10;;;12.93;;
76202;SDS011;64985;46.364;17.008;2023-06-24T21:24:18;15.88;;;12.82;;
76202;SDS011;64985;46.364;17.008;2023-06-24T21:27:20;15.30;;;12.85;;
76202;SDS011;64985;46.364;17.008;2023-06-24T21:30:23;16.38;;;12.43;;
76202;SDS011;64985;46.364;17.008;2023-06-24T21:33:25;17.40;;;13.07;;
76202;SDS011;64985;46.364;17.008;2023-06-24T21:36:27;15.90;;;12.35;;
76202;SDS011;64985;46.364;17.008;2023-06-24T21:39:29;15.27;;;12.57;;
76202;SDS011;64985;46.364;17.008;2023-06-24T21:42:31;16.02;;;12.38;;
76202;SDS011;64985;46.364;17.008;2023-06-24T21:45:33;14.07;;;11.63;;
76202;SDS011;64985;46.364;17.008;2023-06-24T21:48:36;16.63;;;12.35;;
76202;SDS011;64985;46.364;17.008;2023-06-24T21:51:38;15.80;;;11.55;;
76202;SDS011;64985;46.364;17.008;2023-06-24T21:54:41;15.52;;;12.02;;
76202;SDS011;64985;46.364;17.008;2023-06-24T21:57:43;15.57;;;13.23;;
76202;SDS011;64985;46.364;17.008;2023-06-24T22:00:45;16.33;;;12.95;;
76202;SDS011;64985;46.364;17.008;2023-06-24T22:03:47;18.20;;;12.98;;
76202;SDS011;64985;46.364;17.008;2023-06-24T22:06:50;17.80;;;13.13;;
76202;SDS011;64985;46.364;17.008;2023-06-24T22:09:52;17.27;;;13.00;;
76202;SDS011;64985;46.364;17.008;2023-06-24T22:12:55;14.80;;;12.10;;
76202;SDS011;64985;46.364;17.008;2023-06-24T22:15:57;13.98;;;12.13;;
76202;SDS011;64985;46.364;17.008;2023-06-24T22:18:59;13.85;;;11.20;;
76202;SDS011;64985;46.364;17.008;2023-06-24T22:22:01;16.63;;;10.98;;
76202;SDS011;64985;46.364;17.008;2023-06-24T22:25:03;14.85;;;11.30;;
76202;SDS011;64985;46.364;17.008;2023-06-24T22:28:05;17.80;;;11.25;;
76202;SDS011;64985;46.364;17.008;2023-06-24T22:31:07;16.45;;;12.45;;
76202;SDS011;64985;46.364;17.008;2023-06-24T22:34:10;14.75;;;10.82;;
76202;SDS011;64985;46.364;17.008;2023-06-24T22:37:13;15.10;;;11.13;;
76202;SDS011;64985;46.364;17.008;2023-06-24T22:40:15;18.23;;;10.70;;
76202;SDS011;64985;46.364;17.008;2023-06-24T22:43:18;14.73;;;10.43;;
76202;SDS011;64985;46.364;17.008;2023-06-24T22:46:20;11.88;;;10.35;;
76202;SDS011;64985;46.364;17.008;2023-06-24T22:49:22;20.23;;;10.68;;
76202;SDS011;64985;46.364;17.008;2023-06-24T22:52:24;16.77;;;12.02;;
76202;SDS011;64985;46.364;17.008;2023-06-24T22:55:26;16.63;;;11.32;;
76202;SDS011;64985;46.364;17.008;2023-06-24T22:58:29;13.23;;;11.82;;
76202;SDS011;64985;46.364;17.008;2023-06-24T23:01:31;17.10;;;11.07;;
76202;SDS011;64985;46.364;17.008;2023-06-24T23:04:33;16.50;;;11.60;;
76202;SDS011;64985;46.364;17.008;2023-06-24T23:07:36;14.90;;;11.07;;
76202;SDS011;64985;46.364;17.008;2023-06-24T23:10:38;15.80;;;11.05;;
76202;SDS011;64985;46.364;17.008;2023-06-24T23:13:41;16.80;;;11.27;;
76202;SDS011;64985;46.364;17.008;2023-06-24T23:16:45;13.63;;;10.90;;